sensor_id;sensor_type;location;lat;lon;timestamp;temperature;humidity
69938;DHT22;57248;47.320;15.998;2023-04-15T00:01:49;5.04;99.99
69938;DHT22;57248;47.320;15.998;2023-04-15T00:04:22;5.04;99.99
69938;DHT22;57248;47.320;15.998;2023-04-15T00:06:53;5.07;99.99
69938;DHT22;57248;47.320;15.998;2023-04-15T00:09:25;5.04;99.99
69938;DHT22;57248;47.320;15.998;2023-04-15T00:11:57;5.04;99.99
69938;DHT22;57248;47.320;15.998;2023-04-15T00:14:30;5.05;99.99
69938;DHT22;57248;47.320;15.998;2023-04-15T00:17:02;5.05;99.99
69938;DHT22;57248;47.320;15.998;2023-04-15T00:19:34;5.02;99.99
69938;DHT22;57248;47.320;15.998;2023-04-15T00:22:07;5.04;99.99
69938;DHT22;57248;47.320;15.998;2023-04-15T00:24:39;5.05;99.99
69938;DHT22;57248;47.320;15.998;2023-04-15T00:27:11;4.99;99.99
69938;DHT22;57248;47.320;15.998;2023-04-15T00:29:44;5.02;99.99
69938;DHT22;57248;47.320;15.998;2023-04-15T00:32:09;5.05;99.99
69938;DHT22;57248;47.320;15.998;2023-04-15T00:34:41;5.05;99.99
69938;DHT22;57248;47.320;15.998;2023-04-15T00:37:08;5.05;99.99
69938;DHT22;57248;47.320;15.998;2023-04-15T00:39:40;5.04;99.99
69938;DHT22;57248;47.320;15.998;2023-04-15T00:42:13;5.04;99.99
69938;DHT22;57248;47.320;15.998;2023-04-15T00:44:51;5.04;99.99
69938;DHT22;57248;47.320;15.998;2023-04-15T00:47:24;5.01;99.99
69938;DHT22;57248;47.320;15.998;2023-04-15T00:50:04;5.02;99.99
69938;DHT22;57248;47.320;15.998;2023-04-15T00:52:37;4.99;99.99
69938;DHT22;57248;47.320;15.998;2023-04-15T00:55:09;4.98;99.99
69938;DHT22;57248;47.320;15.998;2023-04-15T00:57:42;4.99;99.99
69938;DHT22;57248;47.320;15.998;2023-04-15T01:00:15;4.96;99.99
69938;DHT22;57248;47.320;15.998;2023-04-15T01:02:47;5.02;99.99
69938;DHT22;57248;47.320;15.998;2023-04-15T01:05:19;4.96;99.99
69938;DHT22;57248;47.320;15.998;2023-04-15T01:07:51;4.96;99.99
69938;DHT22;57248;47.320;15.998;2023-04-15T01:10:23;4.95;99.99
69938;DHT22;57248;47.320;15.998;2023-04-15T01:12:55;4.96;99.99
69938;DHT22;57248;47.320;15.998;2023-04-15T01:15:27;4.96;99.99
69938;DHT22;57248;47.320;15.998;2023-04-15T01:18:01;4.95;99.99
69938;DHT22;57248;47.320;15.998;2023-04-15T01:20:36;4.95;99.99
69938;DHT22;57248;47.320;15.998;2023-04-15T01:23:09;4.96;99.99
69938;DHT22;57248;47.320;15.998;2023-04-15T01:25:41;4.96;99.99
69938;DHT22;57248;47.320;15.998;2023-04-15T01:28:14;4.96;99.99
69938;DHT22;57248;47.320;15.998;2023-04-15T01:31:03;4.95;99.99
69938;DHT22;57248;47.320;15.998;2023-04-15T01:33:36;4.95;99.99
69938;DHT22;57248;47.320;15.998;2023-04-15T01:36:23;4.98;99.99
69938;DHT22;57248;47.320;15.998;2023-04-15T01:38:56;4.98;99.99
69938;DHT22;57248;47.320;15.998;2023-04-15T01:41:36;4.96;99.99
69938;DHT22;57248;47.320;15.998;2023-04-15T01:44:14;4.96;99.99
69938;DHT22;57248;47.320;15.998;2023-04-15T01:46:47;4.98;99.99
69938;DHT22;57248;47.320;15.998;2023-04-15T01:49:19;4.95;99.99
69938;DHT22;57248;47.320;15.998;2023-04-15T01:51:52;4.95;99.99
69938;DHT22;57248;47.320;15.998;2023-04-15T01:54:25;4.96;99.99
69938;DHT22;57248;47.320;15.998;2023-04-15T01:56:57;4.98;99.99
69938;DHT22;57248;47.320;15.998;2023-04-15T01:59:30;4.96;99.99
69938;DHT22;57248;47.320;15.998;2023-04-15T02:02:03;4.95;99.99
69938;DHT22;57248;47.320;15.998;2023-04-15T02:04:35;4.96;99.99
69938;DHT22;57248;47.320;15.998;2023-04-15T02:07:08;4.95;99.99
69938;DHT22;57248;47.320;15.998;2023-04-15T02:09:40;4.98;99.99
69938;DHT22;57248;47.320;15.998;2023-04-15T02:12:12;5.05;99.99
69938;DHT22;57248;47.320;15.998;2023-04-15T02:14:44;5.11;99.99
69938;DHT22;57248;47.320;15.998;2023-04-15T02:17:15;5.11;99.97
69938;DHT22;57248;47.320;15.998;2023-04-15T02:19:48;5.05;98.91
69938;DHT22;57248;47.320;15.998;2023-04-15T02:22:20;5.04;98.68
69938;DHT22;57248;47.320;15.998;2023-04-15T02:24:45;5.01;98.52
69938;DHT22;57248;47.320;15.998;2023-04-15T02:27:18;4.88;98.47
69938;DHT22;57248;47.320;15.998;2023-04-15T02:29:49;4.87;98.65
69938;DHT22;57248;47.320;15.998;2023-04-15T02:32:21;4.94;98.68
69938;DHT22;57248;47.320;15.998;2023-04-15T02:34:55;4.92;98.54
69938;DHT22;57248;47.320;15.998;2023-04-15T02:37:26;4.96;98.40
69938;DHT22;57248;47.320;15.998;2023-04-15T02:39:59;4.95;98.28
69938;DHT22;57248;47.320;15.998;2023-04-15T02:42:32;4.91;98.03
69938;DHT22;57248;47.320;15.998;2023-04-15T02:44:59;4.92;98.03
69938;DHT22;57248;47.320;15.998;2023-04-15T02:47:34;4.88;97.95
69938;DHT22;57248;47.320;15.998;2023-04-15T02:50:13;4.89;98.19
69938;DHT22;57248;47.320;15.998;2023-04-15T02:52:46;4.81;98.37
69938;DHT22;57248;47.320;15.998;2023-04-15T02:55:18;4.87;98.32
69938;DHT22;57248;47.320;15.998;2023-04-15T02:57:50;4.91;98.22
69938;DHT22;57248;47.320;15.998;2023-04-15T03:00:22;4.87;97.70
69938;DHT22;57248;47.320;15.998;2023-04-15T03:02:49;4.70;97.16
69938;DHT22;57248;47.320;15.998;2023-04-15T03:05:27;4.71;97.55
69938;DHT22;57248;47.320;15.998;2023-04-15T03:08:01;4.60;97.09
69938;DHT22;57248;47.320;15.998;2023-04-15T03:10:34;4.58;97.19
69938;DHT22;57248;47.320;15.998;2023-04-15T03:13:06;4.54;97.17
69938;DHT22;57248;47.320;15.998;2023-04-15T03:15:38;4.52;97.25
69938;DHT22;57248;47.320;15.998;2023-04-15T03:18:11;4.58;97.24
69938;DHT22;57248;47.320;15.998;2023-04-15T03:20:43;4.70;97.09
69938;DHT22;57248;47.320;15.998;2023-04-15T03:23:16;4.67;96.90
69938;DHT22;57248;47.320;15.998;2023-04-15T03:25:41;4.73;96.88
69938;DHT22;57248;47.320;15.998;2023-04-15T03:28:14;4.73;97.03
69938;DHT22;57248;47.320;15.998;2023-04-15T03:30:47;4.77;96.51
69938;DHT22;57248;47.320;15.998;2023-04-15T03:33:18;4.70;95.97
69938;DHT22;57248;47.320;15.998;2023-04-15T03:35:51;4.65;96.15
69938;DHT22;57248;47.320;15.998;2023-04-15T03:38:24;4.70;95.95
69938;DHT22;57248;47.320;15.998;2023-04-15T03:40:56;4.70;96.20
69938;DHT22;57248;47.320;15.998;2023-04-15T03:43:27;4.63;95.86
69938;DHT22;57248;47.320;15.998;2023-04-15T03:46:06;4.58;96.11
69938;DHT22;57248;47.320;15.998;2023-04-15T03:48:39;4.63;96.28
69938;DHT22;57248;47.320;15.998;2023-04-15T03:51:04;4.70;96.19
69938;DHT22;57248;47.320;15.998;2023-04-15T03:53:37;4.68;96.46
69938;DHT22;57248;47.320;15.998;2023-04-15T03:56:09;4.68;96.16
69938;DHT22;57248;47.320;15.998;2023-04-15T03:58:41;4.73;96.05
69938;DHT22;57248;47.320;15.998;2023-04-15T04:01:13;4.70;96.71
69938;DHT22;57248;47.320;15.998;2023-04-15T04:03:44;4.64;96.43
69938;DHT22;57248;47.320;15.998;2023-04-15T04:06:17;4.68;96.41
69938;DHT22;57248;47.320;15.998;2023-04-15T04:08:49;4.54;96.11
69938;DHT22;57248;47.320;15.998;2023-04-15T04:11:21;4.56;95.97
69938;DHT22;57248;47.320;15.998;2023-04-15T04:13:53;4.60;96.07
69938;DHT22;57248;47.320;15.998;2023-04-15T04:16:25;4.63;95.85
69938;DHT22;57248;47.320;15.998;2023-04-15T04:18:53;4.61;95.82
69938;DHT22;57248;47.320;15.998;2023-04-15T04:21:25;4.65;96.23
69938;DHT22;57248;47.320;15.998;2023-04-15T04:23:57;4.65;96.22
69938;DHT22;57248;47.320;15.998;2023-04-15T04:26:30;4.70;96.72
69938;DHT22;57248;47.320;15.998;2023-04-15T04:29:02;4.73;96.60
69938;DHT22;57248;47.320;15.998;2023-04-15T04:31:34;4.74;95.86
69938;DHT22;57248;47.320;15.998;2023-04-15T04:34:06;4.80;95.72
69938;DHT22;57248;47.320;15.998;2023-04-15T04:36:31;4.77;96.16
69938;DHT22;57248;47.320;15.998;2023-04-15T04:39:05;4.77;96.16
69938;DHT22;57248;47.320;15.998;2023-04-15T04:41:37;4.81;95.87
69938;DHT22;57248;47.320;15.998;2023-04-15T04:44:10;4.83;96.06
69938;DHT22;57248;47.320;15.998;2023-04-15T04:46:42;4.77;95.89
69938;DHT22;57248;47.320;15.998;2023-04-15T04:49:20;4.83;96.03
69938;DHT22;57248;47.320;15.998;2023-04-15T04:51:53;4.78;96.19
69938;DHT22;57248;47.320;15.998;2023-04-15T04:54:26;4.81;96.52
69938;DHT22;57248;47.320;15.998;2023-04-15T04:56:58;4.85;96.08
69938;DHT22;57248;47.320;15.998;2023-04-15T04:59:30;4.87;96.10
69938;DHT22;57248;47.320;15.998;2023-04-15T05:02:02;5.04;96.66
69938;DHT22;57248;47.320;15.998;2023-04-15T05:04:35;5.12;95.75
69938;DHT22;57248;47.320;15.998;2023-04-15T05:07:01;4.96;96.00
69938;DHT22;57248;47.320;15.998;2023-04-15T05:09:33;4.98;95.99
69938;DHT22;57248;47.320;15.998;2023-04-15T05:12:07;4.98;96.11
69938;DHT22;57248;47.320;15.998;2023-04-15T05:14:41;5.04;96.49
69938;DHT22;57248;47.320;15.998;2023-04-15T05:17:13;5.01;96.14
69938;DHT22;57248;47.320;15.998;2023-04-15T05:19:46;4.92;95.70
69938;DHT22;57248;47.320;15.998;2023-04-15T05:22:18;4.99;95.57
69938;DHT22;57248;47.320;15.998;2023-04-15T05:24:50;5.05;95.55
69938;DHT22;57248;47.320;15.998;2023-04-15T05:27:22;5.09;95.64
69938;DHT22;57248;47.320;15.998;2023-04-15T05:29:56;5.18;95.24
69938;DHT22;57248;47.320;15.998;2023-04-15T05:32:28;5.16;95.32
69938;DHT22;57248;47.320;15.998;2023-04-15T05:35:00;5.12;95.79
69938;DHT22;57248;47.320;15.998;2023-04-15T05:37:34;5.19;95.47
69938;DHT22;57248;47.320;15.998;2023-04-15T05:40:07;5.21;95.25
69938;DHT22;57248;47.320;15.998;2023-04-15T05:42:41;5.26;95.26
69938;DHT22;57248;47.320;15.998;2023-04-15T05:45:20;5.39;94.71
69938;DHT22;57248;47.320;15.998;2023-04-15T05:47:53;5.36;94.91
69938;DHT22;57248;47.320;15.998;2023-04-15T05:50:28;5.43;94.60
69938;DHT22;57248;47.320;15.998;2023-04-15T05:53:01;5.43;93.79
69938;DHT22;57248;47.320;15.998;2023-04-15T05:55:34;5.36;93.94
69938;DHT22;57248;47.320;15.998;2023-04-15T05:58:06;5.40;94.01
69938;DHT22;57248;47.320;15.998;2023-04-15T06:00:31;5.44;94.24
69938;DHT22;57248;47.320;15.998;2023-04-15T06:03:04;5.47;94.07
69938;DHT22;57248;47.320;15.998;2023-04-15T06:05:37;5.56;93.91
69938;DHT22;57248;47.320;15.998;2023-04-15T06:08:02;5.50;94.32
69938;DHT22;57248;47.320;15.998;2023-04-15T06:10:35;5.53;94.02
69938;DHT22;57248;47.320;15.998;2023-04-15T06:13:07;5.63;93.86
69938;DHT22;57248;47.320;15.998;2023-04-15T06:15:39;5.67;93.56
69938;DHT22;57248;47.320;15.998;2023-04-15T06:18:11;5.74;93.53
69938;DHT22;57248;47.320;15.998;2023-04-15T06:20:44;5.71;93.36
69938;DHT22;57248;47.320;15.998;2023-04-15T06:23:17;5.77;93.28
69938;DHT22;57248;47.320;15.998;2023-04-15T06:25:49;5.78;93.33
69938;DHT22;57248;47.320;15.998;2023-04-15T06:28:21;5.86;92.95
69938;DHT22;57248;47.320;15.998;2023-04-15T06:30:47;5.81;93.06
69938;DHT22;57248;47.320;15.998;2023-04-15T06:33:19;5.84;93.22
69938;DHT22;57248;47.320;15.998;2023-04-15T06:35:51;5.89;92.69
69938;DHT22;57248;47.320;15.998;2023-04-15T06:38:23;5.94;92.86
69938;DHT22;57248;47.320;15.998;2023-04-15T06:40:55;6.01;92.81
69938;DHT22;57248;47.320;15.998;2023-04-15T06:43:27;5.97;92.78
69938;DHT22;57248;47.320;15.998;2023-04-15T06:45:59;5.98;93.15
69938;DHT22;57248;47.320;15.998;2023-04-15T06:48:38;5.98;92.73
69938;DHT22;57248;47.320;15.998;2023-04-15T06:51:10;6.04;92.00
69938;DHT22;57248;47.320;15.998;2023-04-15T06:53:42;6.12;91.87
69938;DHT22;57248;47.320;15.998;2023-04-15T06:56:15;6.29;91.08
69938;DHT22;57248;47.320;15.998;2023-04-15T06:58:47;6.32;90.71
69938;DHT22;57248;47.320;15.998;2023-04-15T07:01:19;6.35;90.72
69938;DHT22;57248;47.320;15.998;2023-04-15T07:03:52;6.34;90.21
69938;DHT22;57248;47.320;15.998;2023-04-15T07:06:24;6.42;90.01
69938;DHT22;57248;47.320;15.998;2023-04-15T07:08:50;6.34;90.70
69938;DHT22;57248;47.320;15.998;2023-04-15T07:11:22;6.38;90.78
69938;DHT22;57248;47.320;15.998;2023-04-15T07:13:56;6.35;91.08
69938;DHT22;57248;47.320;15.998;2023-04-15T07:16:28;6.42;90.75
69938;DHT22;57248;47.320;15.998;2023-04-15T07:19:01;6.41;90.33
69938;DHT22;57248;47.320;15.998;2023-04-15T07:21:33;6.50;90.71
69938;DHT22;57248;47.320;15.998;2023-04-15T07:24:05;6.56;90.15
69938;DHT22;57248;47.320;15.998;2023-04-15T07:26:37;6.53;90.20
69938;DHT22;57248;47.320;15.998;2023-04-15T07:29:09;6.42;90.66
69938;DHT22;57248;47.320;15.998;2023-04-15T07:31:41;6.59;89.80
69938;DHT22;57248;47.320;15.998;2023-04-15T07:34:13;6.55;89.59
69938;DHT22;57248;47.320;15.998;2023-04-15T07:36:45;6.69;89.91
69938;DHT22;57248;47.320;15.998;2023-04-15T07:39:17;6.72;89.94
69938;DHT22;57248;47.320;15.998;2023-04-15T07:41:50;6.82;88.67
69938;DHT22;57248;47.320;15.998;2023-04-15T07:44:23;6.87;88.69
69938;DHT22;57248;47.320;15.998;2023-04-15T07:46:56;7.23;88.19
69938;DHT22;57248;47.320;15.998;2023-04-15T07:49:28;7.28;87.98
69938;DHT22;57248;47.320;15.998;2023-04-15T07:52:00;7.62;87.09
69938;DHT22;57248;47.320;15.998;2023-04-15T07:54:32;7.34;87.10
69938;DHT22;57248;47.320;15.998;2023-04-15T07:57:05;7.44;85.87
69938;DHT22;57248;47.320;15.998;2023-04-15T07:59:37;7.93;86.50
69938;DHT22;57248;47.320;15.998;2023-04-15T08:02:10;8.16;84.64
69938;DHT22;57248;47.320;15.998;2023-04-15T08:04:42;8.19;85.12
69938;DHT22;57248;47.320;15.998;2023-04-15T08:07:14;8.50;83.99
69938;DHT22;57248;47.320;15.998;2023-04-15T08:09:49;8.64;84.51
69938;DHT22;57248;47.320;15.998;2023-04-15T08:12:21;8.91;83.41
69938;DHT22;57248;47.320;15.998;2023-04-15T08:14:54;8.69;83.05
69938;DHT22;57248;47.320;15.998;2023-04-15T08:17:26;8.54;83.29
69938;DHT22;57248;47.320;15.998;2023-04-15T08:19:59;8.33;83.10
69938;DHT22;57248;47.320;15.998;2023-04-15T08:22:24;9.01;82.41
69938;DHT22;57248;47.320;15.998;2023-04-15T08:24:56;9.12;81.17
69938;DHT22;57248;47.320;15.998;2023-04-15T08:27:29;9.75;79.68
69938;DHT22;57248;47.320;15.998;2023-04-15T08:29:54;10.36;79.38
69938;DHT22;57248;47.320;15.998;2023-04-15T08:32:26;9.97;78.68
69938;DHT22;57248;47.320;15.998;2023-04-15T08:34:58;10.29;78.75
69938;DHT22;57248;47.320;15.998;2023-04-15T08:37:30;11.15;76.35
69938;DHT22;57248;47.320;15.998;2023-04-15T08:40:02;11.18;76.04
69938;DHT22;57248;47.320;15.998;2023-04-15T08:42:38;10.87;75.53
69938;DHT22;57248;47.320;15.998;2023-04-15T08:45:19;10.99;76.66
69938;DHT22;57248;47.320;15.998;2023-04-15T08:47:54;11.48;76.17
69938;DHT22;57248;47.320;15.998;2023-04-15T08:50:34;10.81;76.33
69938;DHT22;57248;47.320;15.998;2023-04-15T08:53:06;10.59;77.41
69938;DHT22;57248;47.320;15.998;2023-04-15T08:55:42;10.72;77.77
69938;DHT22;57248;47.320;15.998;2023-04-15T08:58:15;10.49;77.86
69938;DHT22;57248;47.320;15.998;2023-04-15T09:00:47;10.31;77.79
69938;DHT22;57248;47.320;15.998;2023-04-15T09:03:19;10.25;81.53
69938;DHT22;57248;47.320;15.998;2023-04-15T09:05:52;10.11;80.25
69938;DHT22;57248;47.320;15.998;2023-04-15T09:08:25;9.85;81.12
69938;DHT22;57248;47.320;15.998;2023-04-15T09:10:57;9.85;80.67
69938;DHT22;57248;47.320;15.998;2023-04-15T09:13:29;9.34;82.15
69938;DHT22;57248;47.320;15.998;2023-04-15T09:16:02;9.37;84.28
69938;DHT22;57248;47.320;15.998;2023-04-15T09:18:37;9.70;82.16
69938;DHT22;57248;47.320;15.998;2023-04-15T09:21:07;9.03;83.05
69938;DHT22;57248;47.320;15.998;2023-04-15T09:24:02;9.85;81.28
69938;DHT22;57248;47.320;15.998;2023-04-15T09:26:35;9.99;80.39
69938;DHT22;57248;47.320;15.998;2023-04-15T09:29:09;10.18;81.27
69938;DHT22;57248;47.320;15.998;2023-04-15T09:31:44;10.06;80.97
69938;DHT22;57248;47.320;15.998;2023-04-15T09:34:17;9.84;82.31
69938;DHT22;57248;47.320;15.998;2023-04-15T09:36:55;9.78;82.05
69938;DHT22;57248;47.320;15.998;2023-04-15T09:39:51;9.18;84.55
69938;DHT22;57248;47.320;15.998;2023-04-15T09:42:26;9.61;83.02
69938;DHT22;57248;47.320;15.998;2023-04-15T09:45:12;9.40;84.67
69938;DHT22;57248;47.320;15.998;2023-04-15T09:47:51;9.18;85.77
69938;DHT22;57248;47.320;15.998;2023-04-15T09:50:27;9.12;85.22
69938;DHT22;57248;47.320;15.998;2023-04-15T09:53:02;8.88;85.43
69938;DHT22;57248;47.320;15.998;2023-04-15T09:55:35;8.65;85.78
69938;DHT22;57248;47.320;15.998;2023-04-15T10:00:56;9.15;85.09
69938;DHT22;57248;47.320;15.998;2023-04-15T10:03:32;9.23;84.89
69938;DHT22;57248;47.320;15.998;2023-04-15T10:06:06;9.22;84.35
69938;DHT22;57248;47.320;15.998;2023-04-15T10:08:40;9.46;84.51
69938;DHT22;57248;47.320;15.998;2023-04-15T10:11:12;9.20;84.45
69938;DHT22;57248;47.320;15.998;2023-04-15T10:13:45;9.51;84.98
69938;DHT22;57248;47.320;15.998;2023-04-15T10:16:22;9.44;85.31
69938;DHT22;57248;47.320;15.998;2023-04-15T10:19:00;9.97;83.65
69938;DHT22;57248;47.320;15.998;2023-04-15T10:21:32;10.02;82.58
69938;DHT22;57248;47.320;15.998;2023-04-15T10:24:05;9.78;84.11
69938;DHT22;57248;47.320;15.998;2023-04-15T10:26:38;9.44;84.33
69938;DHT22;57248;47.320;15.998;2023-04-15T10:29:10;9.39;84.09
69938;DHT22;57248;47.320;15.998;2023-04-15T10:31:42;8.88;86.87
69938;DHT22;57248;47.320;15.998;2023-04-15T10:34:15;8.72;87.66
69938;DHT22;57248;47.320;15.998;2023-04-15T10:36:48;8.45;88.95
69938;DHT22;57248;47.320;15.998;2023-04-15T10:44:41;9.90;84.89
69938;DHT22;57248;47.320;15.998;2023-04-15T10:47:19;9.82;85.14
69938;DHT22;57248;47.320;15.998;2023-04-15T10:50:00;10.15;84.35
69938;DHT22;57248;47.320;15.998;2023-04-15T10:52:33;10.39;82.36
69938;DHT22;57248;47.320;15.998;2023-04-15T10:55:13;11.06;80.36
69938;DHT22;57248;47.320;15.998;2023-04-15T10:57:57;11.15;80.31
69938;DHT22;57248;47.320;15.998;2023-04-15T11:00:31;10.35;81.71
69938;DHT22;57248;47.320;15.998;2023-04-15T11:03:08;10.50;82.35
69938;DHT22;57248;47.320;15.998;2023-04-15T11:08:12;11.58;80.92
69938;DHT22;57248;47.320;15.998;2023-04-15T11:13:20;11.49;78.92
69938;DHT22;57248;47.320;15.998;2023-04-15T11:15:56;10.84;81.36
69938;DHT22;57248;47.320;15.998;2023-04-15T11:18:30;10.97;79.46
69938;DHT22;57248;47.320;15.998;2023-04-15T11:21:07;11.61;79.98
69938;DHT22;57248;47.320;15.998;2023-04-15T11:23:42;11.73;77.77
69938;DHT22;57248;47.320;15.998;2023-04-15T11:26:25;11.31;79.47
69938;DHT22;57248;47.320;15.998;2023-04-15T11:28:58;11.18;80.96
69938;DHT22;57248;47.320;15.998;2023-04-15T11:31:32;10.84;81.14
69938;DHT22;57248;47.320;15.998;2023-04-15T11:34:04;10.81;81.67
69938;DHT22;57248;47.320;15.998;2023-04-15T11:36:37;11.34;81.33
69938;DHT22;57248;47.320;15.998;2023-04-15T11:39:09;10.76;82.50
69938;DHT22;57248;47.320;15.998;2023-04-15T11:41:36;9.97;83.65
69938;DHT22;57248;47.320;15.998;2023-04-15T11:44:18;9.81;84.37
69938;DHT22;57248;47.320;15.998;2023-04-15T11:46:57;9.82;85.04
69938;DHT22;57248;47.320;15.998;2023-04-15T11:49:29;10.39;84.23
69938;DHT22;57248;47.320;15.998;2023-04-15T11:52:09;10.02;85.12
69938;DHT22;57248;47.320;15.998;2023-04-15T11:54:42;10.08;84.98
69938;DHT22;57248;47.320;15.998;2023-04-15T11:57:14;10.01;82.65
69938;DHT22;57248;47.320;15.998;2023-04-15T11:59:47;10.77;81.99
69938;DHT22;57248;47.320;15.998;2023-04-15T12:02:19;11.39;80.25
69938;DHT22;57248;47.320;15.998;2023-04-15T12:05:02;11.71;78.84
69938;DHT22;57248;47.320;15.998;2023-04-15T12:07:57;10.94;81.87
69938;DHT22;57248;47.320;15.998;2023-04-15T12:10:30;11.36;80.67
69938;DHT22;57248;47.320;15.998;2023-04-15T12:13:06;10.97;80.89
69938;DHT22;57248;47.320;15.998;2023-04-15T12:15:38;10.46;84.24
69938;DHT22;57248;47.320;15.998;2023-04-15T12:18:17;10.46;83.22
69938;DHT22;57248;47.320;15.998;2023-04-15T12:20:49;10.83;81.98
69938;DHT22;57248;47.320;15.998;2023-04-15T12:23:23;10.74;82.55
69938;DHT22;57248;47.320;15.998;2023-04-15T12:25:56;11.14;82.12
69938;DHT22;57248;47.320;15.998;2023-04-15T12:28:29;10.94;82.66
69938;DHT22;57248;47.320;15.998;2023-04-15T12:31:09;11.15;82.26
69938;DHT22;57248;47.320;15.998;2023-04-15T12:33:41;11.32;81.75
69938;DHT22;57248;47.320;15.998;2023-04-15T12:36:13;11.30;80.50
69938;DHT22;57248;47.320;15.998;2023-04-15T12:38:46;10.90;82.18
69938;DHT22;57248;47.320;15.998;2023-04-15T12:41:12;11.14;79.85
69938;DHT22;57248;47.320;15.998;2023-04-15T12:43:44;11.75;79.46
69938;DHT22;57248;47.320;15.998;2023-04-15T12:46:18;11.69;78.72
69938;DHT22;57248;47.320;15.998;2023-04-15T12:48:51;11.87;79.34
69938;DHT22;57248;47.320;15.998;2023-04-15T12:51:30;11.35;80.65
69938;DHT22;57248;47.320;15.998;2023-04-15T12:54:02;11.82;78.66
69938;DHT22;57248;47.320;15.998;2023-04-15T12:56:34;11.41;78.10
69938;DHT22;57248;47.320;15.998;2023-04-15T12:59:07;11.90;78.02
69938;DHT22;57248;47.320;15.998;2023-04-15T13:01:40;11.99;76.65
69938;DHT22;57248;47.320;15.998;2023-04-15T13:04:12;11.89;77.14
69938;DHT22;57248;47.320;15.998;2023-04-15T13:06:44;12.21;76.57
69938;DHT22;57248;47.320;15.998;2023-04-15T13:09:17;11.82;78.08
69938;DHT22;57248;47.320;15.998;2023-04-15T13:11:49;11.38;78.43
69938;DHT22;57248;47.320;15.998;2023-04-15T13:14:22;11.22;80.34
69938;DHT22;57248;47.320;15.998;2023-04-15T13:16:54;10.90;79.35
69938;DHT22;57248;47.320;15.998;2023-04-15T13:19:19;10.57;81.55
69938;DHT22;57248;47.320;15.998;2023-04-15T13:21:52;10.62;77.89
69938;DHT22;57248;47.320;15.998;2023-04-15T13:24:24;10.96;80.20
69938;DHT22;57248;47.320;15.998;2023-04-15T13:26:57;10.84;77.04
69938;DHT22;57248;47.320;15.998;2023-04-15T13:29:30;11.41;76.86
69938;DHT22;57248;47.320;15.998;2023-04-15T13:32:02;11.86;73.84
69938;DHT22;57248;47.320;15.998;2023-04-15T13:34:35;11.15;73.45
69938;DHT22;57248;47.320;15.998;2023-04-15T13:37:08;11.31;74.97
69938;DHT22;57248;47.320;15.998;2023-04-15T13:39:40;11.39;74.71
69938;DHT22;57248;47.320;15.998;2023-04-15T13:42:13;12.06;77.46
69938;DHT22;57248;47.320;15.998;2023-04-15T13:44:45;12.12;72.33
69938;DHT22;57248;47.320;15.998;2023-04-15T13:47:24;11.97;72.55
69938;DHT22;57248;47.320;15.998;2023-04-15T13:49:57;11.52;73.95
69938;DHT22;57248;47.320;15.998;2023-04-15T13:52:29;11.92;74.40
69938;DHT22;57248;47.320;15.998;2023-04-15T13:55:02;12.26;73.39
69938;DHT22;57248;47.320;15.998;2023-04-15T13:57:34;12.85;72.21
69938;DHT22;57248;47.320;15.998;2023-04-15T14:00:08;13.03;69.13
69938;DHT22;57248;47.320;15.998;2023-04-15T14:02:40;13.43;69.45
69938;DHT22;57248;47.320;15.998;2023-04-15T14:05:13;13.36;70.66
69938;DHT22;57248;47.320;15.998;2023-04-15T14:07:45;13.09;68.93
69938;DHT22;57248;47.320;15.998;2023-04-15T14:10:18;13.35;71.46
69938;DHT22;57248;47.320;15.998;2023-04-15T14:12:50;13.18;71.24
69938;DHT22;57248;47.320;15.998;2023-04-15T14:15:23;12.57;71.13
69938;DHT22;57248;47.320;15.998;2023-04-15T14:17:55;12.30;71.51
69938;DHT22;57248;47.320;15.998;2023-04-15T14:20:28;11.73;72.42
69938;DHT22;57248;47.320;15.998;2023-04-15T14:23:00;11.55;75.10
69938;DHT22;57248;47.320;15.998;2023-04-15T14:25:33;11.46;75.19
69938;DHT22;57248;47.320;15.998;2023-04-15T14:28:05;11.41;75.57
69938;DHT22;57248;47.320;15.998;2023-04-15T14:30:38;11.58;76.13
69938;DHT22;57248;47.320;15.998;2023-04-15T14:33:10;11.65;77.29
69938;DHT22;57248;47.320;15.998;2023-04-15T14:35:44;11.69;74.02
69938;DHT22;57248;47.320;15.998;2023-04-15T14:38:16;11.80;74.82
69938;DHT22;57248;47.320;15.998;2023-04-15T14:40:48;11.52;73.81
69938;DHT22;57248;47.320;15.998;2023-04-15T14:43:20;11.11;74.08
69938;DHT22;57248;47.320;15.998;2023-04-15T14:45:54;10.94;74.50
69938;DHT22;57248;47.320;15.998;2023-04-15T14:48:33;11.43;72.62
69938;DHT22;57248;47.320;15.998;2023-04-15T14:51:05;11.75;72.87
69938;DHT22;57248;47.320;15.998;2023-04-15T14:53:38;11.72;71.69
69938;DHT22;57248;47.320;15.998;2023-04-15T14:56:10;11.17;73.14
69938;DHT22;57248;47.320;15.998;2023-04-15T14:58:42;11.15;71.97
69938;DHT22;57248;47.320;15.998;2023-04-15T15:01:15;11.21;72.95
69938;DHT22;57248;47.320;15.998;2023-04-15T15:03:48;11.48;73.41
69938;DHT22;57248;47.320;15.998;2023-04-15T15:06:22;11.15;72.85
69938;DHT22;57248;47.320;15.998;2023-04-15T15:08:54;10.91;74.69
69938;DHT22;57248;47.320;15.998;2023-04-15T15:11:26;10.90;74.89
69938;DHT22;57248;47.320;15.998;2023-04-15T15:13:59;10.90;76.24
69938;DHT22;57248;47.320;15.998;2023-04-15T15:16:24;10.72;72.51
69938;DHT22;57248;47.320;15.998;2023-04-15T15:18:57;10.93;72.73
69938;DHT22;57248;47.320;15.998;2023-04-15T15:21:30;10.77;75.44
69938;DHT22;57248;47.320;15.998;2023-04-15T15:24:02;10.39;76.60
69938;DHT22;57248;47.320;15.998;2023-04-15T15:26:34;10.48;72.73
69938;DHT22;57248;47.320;15.998;2023-04-15T15:29:06;10.29;77.83
69938;DHT22;57248;47.320;15.998;2023-04-15T15:31:39;10.28;77.73
69938;DHT22;57248;47.320;15.998;2023-04-15T15:34:11;10.32;75.46
69938;DHT22;57248;47.320;15.998;2023-04-15T15:36:44;10.09;78.07
69938;DHT22;57248;47.320;15.998;2023-04-15T15:39:16;10.06;77.70
69938;DHT22;57248;47.320;15.998;2023-04-15T15:41:51;10.18;77.34
69938;DHT22;57248;47.320;15.998;2023-04-15T15:44:25;10.28;79.11
69938;DHT22;57248;47.320;15.998;2023-04-15T15:47:04;10.46;77.52
69938;DHT22;57248;47.320;15.998;2023-04-15T15:49:36;10.46;77.35
69938;DHT22;57248;47.320;15.998;2023-04-15T15:52:10;10.22;76.95
69938;DHT22;57248;47.320;15.998;2023-04-15T15:54:42;9.99;79.12
69938;DHT22;57248;47.320;15.998;2023-04-15T15:57:14;9.85;79.56
69938;DHT22;57248;47.320;15.998;2023-04-15T15:59:46;9.90;79.74
69938;DHT22;57248;47.320;15.998;2023-04-15T16:02:19;9.78;79.58
69938;DHT22;57248;47.320;15.998;2023-04-15T16:04:52;9.90;78.01
69938;DHT22;57248;47.320;15.998;2023-04-15T16:07:25;9.82;78.28
69938;DHT22;57248;47.320;15.998;2023-04-15T16:09:57;10.06;78.10
69938;DHT22;57248;47.320;15.998;2023-04-15T16:12:29;9.87;78.14
69938;DHT22;57248;47.320;15.998;2023-04-15T16:15:02;10.16;78.37